Time;durP1;ratioP1;P1;durP2;ratioP2;P2;SDS_P1;SDS_P2;PMS_P1;PMS_P2;Temp;Humidity;BMP_temperature;BMP_pressure;BME280_temperature;BME280_humidity;BME280_pressure;Samples;Min_cycle;Max_cycle;Signal;HPM_P1;HPM_P2
2021/06/04 00:00:46;;;;;;;23.00;20.60;;;18.80;98.00;;;;;;4927383;29;20036;-65
2021/06/04 00:03:16;;;;;;;22.95;20.15;;;18.80;98.10;;;;;;4919510;29;20024;-66
2021/06/04 00:05:47;;;;;;;21.98;19.77;;;18.80;98.10;;;;;;4923421;29;20019;-65
2021/06/04 00:08:14;;;;;;;21.00;18.85;;;18.80;98.20;;;;;;4937168;29;20389;-65
2021/06/04 00:10:46;;;;;;;22.98;19.80;;;18.70;98.20;;;;;;4935652;29;20152;-65
2021/06/04 00:13:11;;;;;;;21.77;19.42;;;18.70;98.30;;;;;;4919463;29;20496;-65
2021/06/04 00:15:37;;;;;;;22.33;20.00;;;18.70;98.40;;;;;;4916985;29;20028;-65
2021/06/04 00:18:02;;;;;;;22.58;20.00;;;18.70;98.40;;;;;;4919321;29;20448;-66
2021/06/04 00:20:28;;;;;;;24.45;21.95;;;18.70;98.50;;;;;;4936906;29;20056;-65
2021/06/04 00:22:53;;;;;;;27.95;22.02;;;18.60;98.50;;;;;;4936497;29;20429;-66
2021/06/04 00:25:20;;;;;;;27.25;23.08;;;18.70;98.60;;;;;;4926920;29;20028;-66
2021/06/04 00:27:46;;;;;;;26.45;21.88;;;18.70;98.60;;;;;;4927679;29;20046;-66
2021/06/04 00:30:14;;;;;;;25.92;23.27;;;18.70;98.60;;;;;;4918774;29;20028;-65
2021/06/04 00:32:40;;;;;;;23.38;21.13;;;18.70;98.70;;;;;;4935003;29;20032;-66
2021/06/04 00:35:09;;;;;;;24.35;21.08;;;18.60;98.70;;;;;;4936477;29;20039;-65
2021/06/04 00:37:35;;;;;;;28.30;25.10;;;18.60;98.70;;;;;;4927431;29;20096;-66
2021/06/04 00:40:03;;;;;;;33.83;28.92;;;18.60;98.80;;;;;;4916884;29;20028;-66
2021/06/04 00:42:34;;;;;;;31.80;28.42;;;18.60;98.80;;;;;;4920522;29;20084;-66
2021/06/04 00:45:00;;;;;;;31.87;28.40;;;18.60;98.90;;;;;;4924863;29;20363;-65
2021/06/04 00:47:27;;;;;;;31.73;28.33;;;18.60;98.80;;;;;;4920268;29;20437;-66
2021/06/04 00:49:53;;;;;;;35.03;29.38;;;18.60;98.80;;;;;;4936530;29;20099;-65
2021/06/04 00:52:26;;;;;;;34.58;29.45;;;18.60;98.90;;;;;;4927955;29;20067;-67
2021/06/04 00:54:55;;;;;;;34.83;30.58;;;18.60;98.90;;;;;;4929317;29;20385;-65
2021/06/04 00:57:21;;;;;;;31.35;28.25;;;18.60;98.90;;;;;;4934414;29;20028;-63
2021/06/04 00:59:47;;;;;;;30.60;27.05;;;18.70;98.90;;;;;;4916364;29;20024;-64
2021/06/04 01:02:17;;;;;;;34.95;30.35;;;18.60;98.80;;;;;;4932427;29;20038;-65
2021/06/04 01:04:44;;;;;;;33.42;29.88;;;18.60;98.80;;;;;;4934728;29;20059;-65
2021/06/04 01:07:22;;;;;;;32.45;27.88;;;18.70;98.80;;;;;;4935351;29;20392;-65
2021/06/04 01:10:16;;;;;;;35.75;30.70;;;18.70;98.80;;;;;;4917165;29;20378;-64
2021/06/04 01:13:01;;;;;;;32.25;29.00;;;18.70;98.70;;;;;;4916972;29;20087;-65
2021/06/04 01:15:35;;;;;;;34.70;30.23;;;18.70;98.70;;;;;;4917230;29;20043;-64
2021/06/04 01:18:07;;;;;;;38.88;31.27;;;18.70;98.70;;;;;;4916620;29;20036;-65
2021/06/04 01:21:11;;;;;;;35.92;31.20;;;18.70;98.70;;;;;;4916341;29;20045;-67
2021/06/04 01:23:45;;;;;;;35.25;31.48;;;18.60;98.60;;;;;;4905982;29;20164;-64
2021/06/04 01:26:35;;;;;;;36.50;31.42;;;18.60;98.60;;;;;;4951952;29;20031;-64
2021/06/04 01:29:24;;;;;;;37.40;31.35;;;18.60;98.50;;;;;;4941364;28;20091;-65
2021/06/04 01:31:55;;;;;;;32.92;29.30;;;18.60;98.60;;;;;;4934069;29;20059;-65
2021/06/04 01:34:30;;;;;;;37.10;29.73;;;18.50;98.60;;;;;;4935787;29;20047;-66
2021/06/04 01:37:05;;;;;;;34.08;30.50;;;18.50;98.60;;;;;;4934825;29;20035;-65
2021/06/04 01:39:38;;;;;;;36.03;30.65;;;18.50;98.70;;;;;;4934421;29;20103;-67
2021/06/04 01:42:06;;;;;;;37.92;28.85;;;18.40;98.70;;;;;;4934865;29;20043;-66
2021/06/04 01:44:43;;;;;;;32.28;28.85;;;18.40;98.80;;;;;;4935657;29;20031;-65
2021/06/04 01:47:12;;;;;;;32.22;28.10;;;18.40;98.80;;;;;;4935700;29;20099;-67
2021/06/04 01:49:45;;;;;;;35.83;29.75;;;18.30;98.80;;;;;;4933811;29;20016;-65
2021/06/04 01:52:20;;;;;;;38.92;29.23;;;18.30;98.90;;;;;;4935531;29;20107;-65
2021/06/04 01:54:54;;;;;;;37.13;30.50;;;18.20;99.00;;;;;;4935494;29;20055;-65
2021/06/04 01:57:25;;;;;;;32.15;27.67;;;18.20;99.00;;;;;;4933504;29;20024;-65
2021/06/04 01:59:52;;;;;;;36.78;30.05;;;18.10;99.00;;;;;;4935299;29;20032;-65
2021/06/04 02:02:24;;;;;;;39.10;30.73;;;18.10;99.10;;;;;;4935529;29;20050;-65
2021/06/04 02:04:53;;;;;;;33.90;29.77;;;18.00;99.10;;;;;;4934602;29;20024;-65
2021/06/04 02:07:23;;;;;;;47.15;35.95;;;17.90;99.10;;;;;;4935220;29;20026;-65
2021/06/04 02:09:49;;;;;;;43.38;34.15;;;17.90;99.20;;;;;;4934051;29;20020;-64
2021/06/04 02:12:15;;;;;;;44.65;36.42;;;17.90;99.30;;;;;;4937913;29;20031;-65
2021/06/04 02:14:48;;;;;;;44.38;36.70;;;17.80;99.30;;;;;;4939275;29;20114;-66
2021/06/04 02:17:34;;;;;;;41.13;35.70;;;17.80;99.30;;;;;;4938442;29;20035;-64
2021/06/04 02:20:22;;;;;;;50.53;40.15;;;17.80;99.30;;;;;;4937521;29;20104;-65
2021/06/04 02:22:53;;;;;;;49.55;39.33;;;17.80;99.40;;;;;;4937593;29;20091;-64
2021/06/04 02:25:22;;;;;;;;;;;17.70;99.30;;;;;;4938871;29;20036;-65
2021/06/04 02:27:56;;;;;;;44.17;34.30;;;17.70;99.30;;;;;;4938433;29;20325;-66
2021/06/04 02:30:31;;;;;;;40.70;35.08;;;17.70;99.30;;;;;;4939107;29;20444;-65
2021/06/04 02:33:15;;;;;;;53.22;40.40;;;17.60;99.30;;;;;;4938169;29;20035;-65
2021/06/04 02:35:54;;;;;;;48.92;40.17;;;17.60;99.40;;;;;;4938890;29;20506;-65
2021/06/04 02:38:29;;;;;;;49.47;41.22;;;17.50;99.40;;;;;;4936741;29;20027;-65
2021/06/04 02:40:59;;;;;;;55.40;44.08;;;17.60;99.40;;;;;;4938659;29;20555;-64
2021/06/04 02:43:31;;;;;;;53.40;41.65;;;17.60;99.50;;;;;;4938934;29;20118;-64
2021/06/04 02:46:03;;;;;;;52.00;41.45;;;17.60;99.50;;;;;;4937766;29;20031;-65
2021/06/04 02:48:28;;;;;;;50.60;38.42;;;17.60;99.50;;;;;;4937261;29;20082;-66
2021/06/04 02:51:09;;;;;;;43.60;34.97;;;17.50;99.50;;;;;;4938329;29;20106;-66
2021/06/04 02:54:14;;;;;;;42.63;35.33;;;17.50;99.50;;;;;;4938029;29;20587;-65
2021/06/04 02:56:49;;;;;;;41.55;34.60;;;17.50;99.50;;;;;;4898657;29;20119;-65
2021/06/04 02:59:26;;;;;;;41.35;33.78;;;17.40;99.50;;;;;;4932904;29;20032;-65
2021/06/04 03:02:13;;;;;;;37.88;33.45;;;17.40;99.50;;;;;;4937147;29;20499;-65
2021/06/04 03:04:43;;;;;;;38.10;32.72;;;17.30;99.50;;;;;;4937053;29;20535;-65
2021/06/04 03:07:13;;;;;;;38.00;30.92;;;17.30;99.50;;;;;;4936161;29;20039;-65
2021/06/04 03:09:42;;;;;;;40.28;31.20;;;17.20;99.50;;;;;;4938257;29;20123;-65
2021/06/04 03:12:14;;;;;;;42.20;35.88;;;17.20;99.50;;;;;;4938110;29;20020;-66
2021/06/04 03:14:39;;;;;;;39.55;34.15;;;17.10;99.60;;;;;;4937586;29;20034;-65
2021/06/04 03:17:09;;;;;;;39.95;34.95;;;17.10;99.70;;;;;;4937876;29;20036;-65
2021/06/04 03:19:35;;;;;;;42.15;35.85;;;17.10;99.80;;;;;;4937966;29;20048;-66
2021/06/04 03:22:10;;;;;;;43.17;35.15;;;17.10;99.80;;;;;;4936510;29;20600;-67
2021/06/04 03:24:39;;;;;;;38.63;33.70;;;17.10;99.90;;;;;;4937669;29;20465;-65
2021/06/04 03:27:06;;;;;;;43.75;36.72;;;17.10;99.90;;;;;;4937527;29;20099;-65
2021/06/04 03:29:34;;;;;;;44.55;35.38;;;17.00;99.90;;;;;;4937366;29;20097;-64
2021/06/04 03:32:04;;;;;;;41.70;33.40;;;17.10;99.90;;;;;;4937768;29;20027;-67
2021/06/04 03:34:29;;;;;;;36.83;31.98;;;17.00;99.90;;;;;;4937325;29;20159;-66
2021/06/04 03:36:58;;;;;;;39.92;33.15;;;16.90;99.90;;;;;;4937516;29;20071;-66
2021/06/04 03:39:28;;;;;;;39.58;31.77;;;16.90;99.90;;;;;;4937695;29;20024;-66
2021/06/04 03:41:55;;;;;;;38.60;31.00;;;16.90;99.90;;;;;;4936851;29;20031;-68
2021/06/04 03:44:25;;;;;;;34.83;30.35;;;16.80;99.80;;;;;;4937987;29;20028;-66
2021/06/04 03:46:51;;;;;;;39.45;32.45;;;16.80;99.90;;;;;;4937132;29;20119;-67
2021/06/04 03:49:18;;;;;;;39.08;33.72;;;16.80;99.90;;;;;;4937077;29;20111;-66
2021/06/04 03:51:45;;;;;;;39.15;32.65;;;16.80;99.90;;;;;;4937238;29;20024;-66
2021/06/04 03:54:15;;;;;;;39.75;33.33;;;16.80;99.90;;;;;;4937571;29;20034;-68
2021/06/04 03:56:43;;;;;;;36.80;31.95;;;16.70;99.90;;;;;;4936830;29;20034;-66
2021/06/04 03:59:08;;;;;;;38.55;32.08;;;16.70;99.90;;;;;;4937422;29;20110;-66
2021/06/04 04:01:40;;;;;;;37.05;31.40;;;16.70;99.90;;;;;;4937494;29;20103;-66
2021/06/04 04:04:06;;;;;;;;;;;16.60;99.90;;;;;;4935623;29;20079;-69
2021/06/04 04:06:32;;;;;;;36.72;30.52;;;16.60;99.90;;;;;;4937153;29;19907;-66
2021/06/04 04:08:57;;;;;;;37.22;31.60;;;16.60;99.90;;;;;;4935897;29;20527;-66
2021/06/04 04:11:24;;;;;;;37.00;31.90;;;16.60;99.90;;;;;;4936506;29;20024;-66
2021/06/04 04:13:50;;;;;;;42.85;33.50;;;16.60;99.90;;;;;;4936985;29;20027;-66
2021/06/04 04:16:15;;;;;;;36.15;29.95;;;16.60;99.90;;;;;;4937151;29;20031;-66
2021/06/04 04:18:41;;;;;;;38.42;32.90;;;16.60;99.90;;;;;;4936400;29;20107;-68
2021/06/04 04:21:10;;;;;;;40.50;36.05;;;16.60;99.90;;;;;;4936651;29;20131;-67
2021/06/04 04:23:41;;;;;;;36.92;33.05;;;16.60;99.90;;;;;;4936306;29;20034;-66
2021/06/04 04:26:09;;;;;;;38.55;31.40;;;16.70;99.90;;;;;;4936796;29;20042;-66
2021/06/04 04:28:38;;;;;;;38.92;33.30;;;16.80;99.90;;;;;;4936891;29;20067;-71
2021/06/04 04:31:05;;;;;;;32.80;29.27;;;16.70;99.90;;;;;;4936084;29;20035;-67
2021/06/04 04:33:31;;;;;;;32.53;29.13;;;16.80;99.90;;;;;;4936552;29;20028;-66
2021/06/04 04:35:57;;;;;;;33.75;29.13;;;16.80;99.80;;;;;;4936445;29;20132;-67
2021/06/04 04:38:23;;;;;;;33.40;29.83;;;16.80;99.80;;;;;;4935963;29;20063;-65
2021/06/04 04:41:02;;;;;;;33.63;29.15;;;16.90;99.70;;;;;;4936418;29;20431;-65
2021/06/04 04:43:36;;;;;;;37.45;29.83;;;16.80;99.70;;;;;;4936734;29;20039;-66
2021/06/04 04:46:03;;;;;;;39.90;31.02;;;16.80;99.80;;;;;;4935692;29;20043;-66
2021/06/04 04:48:28;;;;;;;43.58;30.42;;;16.90;99.80;;;;;;4931506;29;20120;-66
2021/06/04 04:50:54;;;;;;;35.55;30.25;;;16.80;99.80;;;;;;4946189;29;20110;-66
2021/06/04 04:53:22;;;;;;;33.78;30.05;;;16.90;99.80;;;;;;4935392;28;20039;-65
2021/06/04 04:55:47;;;;;;;33.63;28.88;;;17.00;99.80;;;;;;4945823;29;20475;-66
2021/06/04 04:58:13;;;;;;;33.08;28.25;;;17.00;99.70;;;;;;4945601;28;20034;-70
2021/06/04 05:00:41;;;;;;;32.38;28.92;;;17.00;99.70;;;;;;4943909;29;20107;-65
2021/06/04 05:03:09;;;;;;;30.40;27.13;;;17.00;99.60;;;;;;4939814;28;20043;-66
2021/06/04 05:05:36;;;;;;;36.17;30.00;;;17.10;99.60;;;;;;4915653;29;20095;-65
2021/06/04 05:08:03;;;;;;;31.20;26.70;;;17.10;99.60;;;;;;4914865;29;20115;-66
2021/06/04 05:10:29;;;;;;;31.25;24.50;;;17.10;99.60;;;;;;4917139;29;20024;-66
2021/06/04 05:12:54;;;;;;;32.70;29.15;;;17.20;99.70;;;;;;4916293;29;20035;-66
2021/06/04 05:15:25;;;;;;;34.55;28.77;;;17.20;99.50;;;;;;4917201;29;20024;-66
2021/06/04 05:17:52;;;;;;;38.13;31.75;;;17.30;99.60;;;;;;4916641;29;20016;-67
2021/06/04 05:20:19;;;;;;;38.83;32.25;;;17.40;99.60;;;;;;4916324;29;20059;-67
2021/06/04 05:22:45;;;;;;;41.60;36.28;;;17.50;99.60;;;;;;4916800;29;20410;-67
2021/06/04 05:25:13;;;;;;;41.63;36.03;;;17.60;99.60;;;;;;4917027;29;20031;-67
2021/06/04 05:27:39;;;;;;;42.75;38.22;;;17.70;99.50;;;;;;4916191;29;20040;-66
2021/06/04 05:30:12;;;;;;;43.85;36.03;;;17.80;99.30;;;;;;4915468;29;20047;-66
2021/06/04 05:32:38;;;;;;;47.08;36.25;;;17.90;99.30;;;;;;4916776;29;20060;-68
2021/06/04 05:35:05;;;;;;;42.80;34.33;;;17.90;99.20;;;;;;4915951;29;20516;-66
2021/06/04 05:37:31;;;;;;;38.03;33.15;;;17.90;99.10;;;;;;4916742;29;20112;-69
2021/06/04 05:39:56;;;;;;;34.97;31.17;;;18.00;99.00;;;;;;4916585;29;20107;-69
2021/06/04 05:42:22;;;;;;;37.97;31.48;;;18.00;98.90;;;;;;4916107;29;20413;-67
2021/06/04 05:44:47;;;;;;;38.92;29.90;;;18.00;98.10;;;;;;4916565;29;20024;-67
2021/06/04 05:47:14;;;;;;;34.60;28.85;;;18.10;98.10;;;;;;4915968;29;20040;-67
2021/06/04 05:49:41;;;;;;;31.13;27.13;;;18.10;98.10;;;;;;4916063;29;20462;-66
2021/06/04 05:52:09;;;;;;;33.55;27.80;;;18.20;98.10;;;;;;4916394;29;20067;-66
2021/06/04 05:54:43;;;;;;;32.60;26.88;;;18.20;98.00;;;;;;4916571;29;20028;-66
2021/06/04 05:57:09;;;;;;;34.95;27.67;;;18.30;97.60;;;;;;4915848;29;20040;-66
2021/06/04 05:59:35;;;;;;;29.77;26.65;;;18.40;97.50;;;;;;4916666;29;20032;-66
2021/06/04 06:02:01;;;;;;;32.83;26.02;;;18.50;97.50;;;;;;4915206;29;20024;-67
2021/06/04 06:04:27;;;;;;;33.55;26.98;;;18.70;97.50;;;;;;4931873;29;20038;-66
2021/06/04 06:06:53;;;;;;;30.98;26.38;;;18.70;96.80;;;;;;4953048;28;20032;-68
2021/06/04 06:09:21;;;;;;;30.10;26.58;;;18.80;96.40;;;;;;4940089;28;20040;-64
2021/06/04 06:11:47;;;;;;;31.95;25.77;;;18.90;95.90;;;;;;4935014;29;20380;-65
2021/06/04 06:14:13;;;;;;;33.78;25.48;;;19.00;95.80;;;;;;4934100;29;20469;-65
2021/06/04 06:16:39;;;;;;;29.20;26.10;;;19.10;95.50;;;;;;4934531;29;20106;-66
2021/06/04 06:19:06;;;;;;;31.88;25.80;;;19.10;94.90;;;;;;4934982;29;20107;-65
2021/06/04 06:21:33;;;;;;;29.08;24.77;;;19.20;94.60;;;;;;4949351;29;20026;-67
2021/06/04 06:23:58;;;;;;;30.83;26.10;;;19.20;94.30;;;;;;4952239;29;20121;-66
2021/06/04 06:26:28;;;;;;;28.67;25.55;;;19.30;94.10;;;;;;4954420;28;20030;-66
2021/06/04 06:28:55;;;;;;;27.70;24.02;;;19.30;94.10;;;;;;4954179;28;20042;-66
2021/06/04 06:31:24;;;;;;;29.00;25.05;;;19.30;94.10;;;;;;4953664;28;20075;-66
2021/06/04 06:33:52;;;;;;;27.25;23.98;;;19.40;94.60;;;;;;4954078;28;20023;-64
2021/06/04 06:36:22;;;;;;;27.95;25.00;;;19.50;94.90;;;;;;4952841;29;20019;-64
2021/06/04 06:38:48;;;;;;;28.63;24.25;;;19.60;95.30;;;;;;4953342;28;20030;-65
2021/06/04 06:41:15;;;;;;;27.75;23.25;;;19.70;95.10;;;;;;4954248;28;20030;-64
2021/06/04 06:43:46;;;;;;;26.85;24.02;;;19.90;95.40;;;;;;4954194;28;20026;-64
2021/06/04 06:46:13;;;;;;;28.63;25.33;;;20.00;95.30;;;;;;4953986;28;20030;-65
2021/06/04 06:48:38;;;;;;;26.92;23.33;;;20.10;94.90;;;;;;4949707;28;20035;-67
2021/06/04 06:51:09;;;;;;;26.52;23.67;;;20.20;95.00;;;;;;4928178;29;20020;-70
2021/06/04 06:53:37;;;;;;;23.08;20.60;;;20.30;95.10;;;;;;4934608;29;20031;-71
2021/06/04 06:56:04;;;;;;;21.80;18.80;;;20.30;94.50;;;;;;4924096;29;20024;-65
2021/06/04 06:58:30;;;;;;;21.17;18.98;;;20.40;93.90;;;;;;4936016;29;20484;-66
2021/06/04 07:00:56;;;;;;;25.05;21.40;;;20.50;93.70;;;;;;4937769;29;20042;-66
2021/06/04 07:03:27;;;;;;;24.42;20.25;;;20.60;93.70;;;;;;4938461;29;20035;-66
2021/06/04 07:05:54;;;;;;;23.38;20.15;;;20.60;93.70;;;;;;4937536;29;20393;-64
2021/06/04 07:08:20;;;;;;;24.15;19.73;;;20.70;93.70;;;;;;4929518;29;20036;-67
2021/06/04 07:10:46;;;;;;;25.67;20.70;;;20.80;93.70;;;;;;4919121;29;20035;-66
2021/06/04 07:13:15;;;;;;;22.55;19.70;;;20.80;93.40;;;;;;4918757;29;20032;-72
2021/06/04 07:15:41;;;;;;;21.45;18.33;;;20.90;92.30;;;;;;4919233;29;20489;-67
2021/06/04 07:18:09;;;;;;;23.98;20.08;;;21.00;92.50;;;;;;4919018;29;20028;-68
2021/06/04 07:20:36;;;;;;;20.60;18.40;;;21.20;92.90;;;;;;4918758;29;20052;-73
2021/06/04 07:23:06;;;;;;;21.02;17.25;;;21.30;91.20;;;;;;4917839;29;20032;-67
2021/06/04 07:25:35;;;;;;;20.63;17.60;;;21.40;90.60;;;;;;4920023;29;20024;-68
2021/06/04 07:28:02;;;;;;;20.38;18.05;;;21.50;90.60;;;;;;4918007;29;20068;-74
2021/06/04 07:30:32;;;;;;;22.48;16.63;;;21.60;90.70;;;;;;4917786;29;20024;-73
2021/06/04 07:33:01;;;;;;;18.42;16.45;;;21.70;91.00;;;;;;4919192;29;20032;-72
2021/06/04 07:35:29;;;;;;;19.25;17.15;;;21.80;91.40;;;;;;4919576;29;20032;-72
2021/06/04 07:37:55;;;;;;;18.45;16.15;;;21.80;91.00;;;;;;4918359;29;20032;-68
2021/06/04 07:40:26;;;;;;;19.80;16.73;;;21.90;91.00;;;;;;4934559;29;20149;-72
2021/06/04 07:42:52;;;;;;;18.17;16.27;;;21.90;90.20;;;;;;4937153;29;20034;-72
2021/06/04 07:45:33;;;;;;;17.33;15.63;;;21.90;87.80;;;;;;4925998;29;20631;-72
2021/06/04 07:47:59;;;;;;;18.48;13.90;;;21.80;87.60;;;;;;4933892;29;20380;-72
2021/06/04 07:50:25;;;;;;;16.55;14.55;;;21.80;89.00;;;;;;4927080;29;20028;-65
2021/06/04 07:52:51;;;;;;;18.50;14.30;;;21.80;90.50;;;;;;4918742;29;20076;-65
2021/06/04 07:55:17;;;;;;;17.00;14.75;;;21.70;90.50;;;;;;4937080;29;20033;-65
2021/06/04 07:57:42;;;;;;;17.65;15.45;;;21.70;90.70;;;;;;4956549;28;20031;-73
2021/06/04 08:00:16;;;;;;;16.42;14.70;;;21.60;90.30;;;;;;4955333;29;20101;-73
2021/06/04 08:02:42;;;;;;;16.67;14.15;;;21.50;89.60;;;;;;4943099;28;20111;-68
2021/06/04 08:05:08;;;;;;;16.35;14.65;;;21.50;90.10;;;;;;4935350;29;20519;-67
2021/06/04 08:07:34;;;;;;;15.55;13.48;;;21.50;90.00;;;;;;4935805;29;20039;-67
2021/06/04 08:10:00;;;;;;;17.10;15.13;;;21.50;89.90;;;;;;4935849;29;20028;-68
2021/06/04 08:12:31;;;;;;;17.63;13.73;;;21.50;89.80;;;;;;4937306;29;20038;-69
2021/06/04 08:15:01;;;;;;;;;;;21.60;90.80;;;;;;4937451;29;20034;-68
2021/06/04 08:17:27;;;;;;;17.65;15.75;;;21.60;90.90;;;;;;4934788;29;20042;-67
2021/06/04 08:19:53;;;;;;;24.45;19.27;;;21.60;90.50;;;;;;4936697;29;20056;-67
2021/06/04 08:22:19;;;;;;;21.55;19.00;;;21.70;90.70;;;;;;4936963;29;20495;-72
2021/06/04 08:24:44;;;;;;;20.52;18.17;;;21.70;90.60;;;;;;4934860;29;20031;-71
2021/06/04 08:27:11;;;;;;;20.40;18.25;;;21.90;90.40;;;;;;4936894;29;20041;-71
2021/06/04 08:29:36;;;;;;;20.77;18.67;;;22.20;90.00;;;;;;4937135;29;20028;-71
2021/06/04 08:32:04;;;;;;;20.83;18.48;;;22.30;88.80;;;;;;4934482;29;20091;-70
2021/06/04 08:34:30;;;;;;;19.70;17.02;;;22.40;89.70;;;;;;4936749;29;20476;-70
2021/06/04 08:36:56;;;;;;;19.20;17.17;;;22.40;90.00;;;;;;4935741;29;20091;-71
2021/06/04 08:39:29;;;;;;;22.23;17.52;;;22.30;90.30;;;;;;4937076;29;20078;-72
2021/06/04 08:42:11;;;;;;;19.95;16.80;;;22.20;89.00;;;;;;4936255;29;20480;-71
2021/06/04 08:45:17;;;;;;;18.73;16.10;;;22.30;88.70;;;;;;4936253;29;20103;-65
2021/06/04 08:47:49;;;;;;;19.85;15.80;;;22.40;89.60;;;;;;4936545;29;20438;-65
2021/06/04 08:50:38;;;;;;;18.73;16.83;;;22.50;89.60;;;;;;4935574;29;20113;-72
2021/06/04 08:53:25;;;;;;;17.92;16.02;;;22.60;87.80;;;;;;4935874;29;20103;-72
2021/06/04 08:56:18;;;;;;;22.55;16.35;;;22.70;86.90;;;;;;4939676;29;20030;-71
2021/06/04 08:59:04;;;;;;;26.67;16.45;;;22.80;88.20;;;;;;4953706;29;20039;-72
2021/06/04 09:01:57;;;;;;;20.35;17.15;;;22.90;87.90;;;;;;4955615;28;20035;-73
2021/06/04 09:04:30;;;;;;;18.88;16.67;;;22.90;87.00;;;;;;4917213;29;20032;-66
2021/06/04 09:07:06;;;;;;;18.45;16.27;;;22.90;85.00;;;;;;4916040;29;20067;-67
2021/06/04 09:10:01;;;;;;;20.63;18.05;;;22.90;85.10;;;;;;4917054;29;20409;-67
2021/06/04 09:12:39;;;;;;;17.90;14.93;;;23.00;83.80;;;;;;4916350;29;20487;-65
2021/06/04 09:15:08;;;;;;;19.38;17.35;;;23.30;83.30;;;;;;4922833;29;20116;-70
2021/06/04 09:17:51;;;;;;;16.77;14.93;;;23.50;82.00;;;;;;4934857;29;20058;-68
2021/06/04 09:20:41;;;;;;;16.55;14.15;;;23.80;81.10;;;;;;4933128;29;20102;-67
2021/06/04 09:23:11;;;;;;;20.20;15.48;;;24.10;81.20;;;;;;4934003;29;20463;-65
2021/06/04 09:25:37;;;;;;;16.00;13.32;;;24.40;80.30;;;;;;4935670;29;20083;-69
2021/06/04 09:28:12;;;;;;;16.98;14.60;;;24.50;78.80;;;;;;4934863;29;20035;-68
2021/06/04 09:30:56;;;;;;;15.50;12.60;;;24.60;76.60;;;;;;4935370;29;20111;-69
2021/06/04 09:33:26;;;;;;;12.13;10.90;;;24.50;77.70;;;;;;4935155;29;20020;-68
2021/06/04 09:36:10;;;;;;;12.23;8.93;;;24.60;76.30;;;;;;4935412;29;20102;-68
2021/06/04 09:38:55;;;;;;;9.93;6.93;;;24.50;75.20;;;;;;4934180;29;20124;-67
2021/06/04 09:41:26;;;;;;;8.98;6.45;;;24.40;75.10;;;;;;4915878;29;20024;-69
2021/06/04 09:44:10;;;;;;;;;;;24.50;75.20;;;;;;4923021;29;20436;-64
2021/06/04 09:47:14;;;;;;;8.25;6.13;;;24.60;76.30;;;;;;4935414;29;19951;-67
2021/06/04 09:49:43;;;;;;;8.98;6.50;;;24.60;75.90;;;;;;4932859;29;20043;-67
2021/06/04 09:52:23;;;;;;;9.13;7.00;;;24.60;77.10;;;;;;4935197;29;20032;-66
2021/06/04 09:55:11;;;;;;;6.90;5.97;;;24.50;76.50;;;;;;4934620;29;20055;-66
2021/06/04 09:57:37;;;;;;;8.90;5.50;;;24.40;75.60;;;;;;4935366;29;20421;-66
2021/06/04 10:00:21;;;;;;;6.35;5.00;;;24.40;75.40;;;;;;4933495;29;20028;-69
2021/06/04 10:02:46;;;;;;;6.30;5.10;;;24.40;76.00;;;;;;4934363;29;20123;-73
2021/06/04 10:05:26;;;;;;;7.35;5.07;;;24.40;76.30;;;;;;4933388;29;20115;-72
2021/06/04 10:08:00;;;;;;;10.75;6.78;;;24.40;75.40;;;;;;4935110;29;20027;-72
2021/06/04 10:10:30;;;;;;;9.13;6.82;;;24.50;74.20;;;;;;4933586;29;20476;-72
2021/06/04 10:12:59;;;;;;;8.48;6.15;;;24.40;74.10;;;;;;4933957;29;20035;-72
2021/06/04 10:15:36;;;;;;;8.57;7.35;;;24.30;74.60;;;;;;4934550;29;20443;-74
2021/06/04 10:18:23;;;;;;;9.05;7.25;;;24.30;75.40;;;;;;4934051;29;20044;-73
2021/06/04 10:20:49;;;;;;;7.93;6.60;;;24.40;75.80;;;;;;4933911;29;20047;-73
2021/06/04 10:23:35;;;;;;;12.20;8.25;;;24.50;77.10;;;;;;4934899;29;20032;-73
2021/06/04 10:26:17;;;;;;;9.52;7.30;;;24.60;74.80;;;;;;4934324;29;20034;-65
2021/06/04 10:28:47;;;;;;;9.75;7.35;;;24.70;74.50;;;;;;4934316;29;20040;-67
2021/06/04 10:31:15;;;;;;;9.07;7.43;;;24.80;74.20;;;;;;4915208;29;20079;-65
2021/06/04 10:33:50;;;;;;;8.75;6.72;;;24.90;74.30;;;;;;4925942;29;20036;-65
2021/06/04 10:36:19;;;;;;;8.55;6.80;;;24.90;74.20;;;;;;4936285;29;20032;-65
2021/06/04 10:38:53;;;;;;;9.00;6.65;;;24.90;73.40;;;;;;4938520;29;20032;-67
2021/06/04 10:41:36;;;;;;;10.00;7.82;;;24.90;74.30;;;;;;4936572;29;20020;-66
2021/06/04 10:44:14;;;;;;;8.52;6.80;;;24.90;73.80;;;;;;4936981;29;20063;-67
2021/06/04 10:46:51;;;;;;;8.90;7.85;;;25.10;74.40;;;;;;4941787;29;20042;-67
2021/06/04 10:49:35;;;;;;;8.48;6.90;;;25.20;72.90;;;;;;4957961;28;20059;-65
2021/06/04 10:52:13;;;;;;;7.28;6.03;;;25.20;72.40;;;;;;4937313;29;20128;-66
2021/06/04 10:55:08;;;;;;;9.18;6.97;;;25.40;72.10;;;;;;4939099;29;20353;-65
2021/06/04 10:58:07;;;;;;;6.93;6.10;;;25.70;72.10;;;;;;4931718;29;20076;-73
2021/06/04 11:00:52;;;;;;;8.68;6.47;;;25.90;72.40;;;;;;4937475;29;20028;-74
2021/06/04 11:03:25;;;;;;;7.10;6.32;;;26.30;72.60;;;;;;4938562;29;20484;-75
2021/06/04 11:06:03;;;;;;;6.70;6.10;;;26.60;71.50;;;;;;4935964;29;20385;-73
2021/06/04 11:08:43;;;;;;;9.20;7.00;;;26.90;71.30;;;;;;4937978;29;20036;-73
2021/06/04 11:11:24;;;;;;;7.03;6.17;;;27.10;72.20;;;;;;4936475;29;20592;-73
2021/06/04 11:14:13;;;;;;;9.77;7.95;;;27.30;73.80;;;;;;4935679;29;20384;-73
2021/06/04 11:17:04;;;;;;;11.63;10.50;;;27.40;74.00;;;;;;4938152;29;20031;-74
2021/06/04 11:19:37;;;;;;;10.05;8.77;;;27.40;71.70;;;;;;4936745;29;20051;-74
2021/06/04 11:22:11;;;;;;;10.05;8.68;;;27.40;72.70;;;;;;4937579;29;20123;-73
2021/06/04 11:25:00;;;;;;;8.90;7.95;;;27.40;73.10;;;;;;4938054;29;20034;-73
2021/06/04 11:27:36;;;;;;;8.60;7.68;;;27.40;73.20;;;;;;4937277;29;20036;-75
2021/06/04 11:30:07;;;;;;;11.27;8.07;;;27.40;71.90;;;;;;4936694;29;20034;-75
2021/06/04 11:32:38;;;;;;;;;;;27.30;71.10;;;;;;4930817;29;20021;-77
2021/06/04 11:35:26;;;;;;;7.70;6.90;;;27.40;72.00;;;;;;4945030;29;19953;-67
2021/06/04 11:38:15;;;;;;;7.88;6.47;;;27.40;71.90;;;;;;4950233;28;20461;-69
2021/06/04 11:40:49;;;;;;;10.63;6.95;;;27.50;71.90;;;;;;4941565;29;20028;-67
2021/06/04 11:43:15;;;;;;;7.80;7.00;;;27.40;67.70;;;;;;4931511;29;20060;-68
2021/06/04 11:45:45;;;;;;;11.15;6.78;;;27.20;67.50;;;;;;4921123;29;20027;-69
2021/06/04 11:48:25;;;;;;;7.83;6.93;;;27.10;68.10;;;;;;4917657;29;20467;-69
2021/06/04 11:51:17;;;;;;;10.15;6.38;;;27.20;69.00;;;;;;4918502;29;20121;-67
2021/06/04 11:53:43;;;;;;;9.40;7.10;;;27.30;69.80;;;;;;4916743;29;20032;-67
2021/06/04 11:56:13;;;;;;;10.32;7.65;;;27.50;69.70;;;;;;4917356;29;20091;-67
2021/06/04 11:58:44;;;;;;;8.90;8.00;;;27.60;69.90;;;;;;4918629;29;20029;-67
2021/06/04 12:01:10;;;;;;;;;;;27.70;69.60;;;;;;4918227;29;20031;-67
2021/06/04 12:03:36;;;;;;;8.23;7.25;;;27.70;68.70;;;;;;4918435;29;19911;-66
2021/06/04 12:06:24;;;;;;;7.60;6.82;;;27.70;69.60;;;;;;4918012;29;20028;-66
2021/06/04 12:08:51;;;;;;;8.00;7.18;;;27.90;69.30;;;;;;4916175;29;20445;-67
2021/06/04 12:11:17;;;;;;;7.47;6.75;;;27.90;67.20;;;;;;4917076;29;20024;-67
2021/06/04 12:13:49;;;;;;;7.30;6.65;;;27.80;65.90;;;;;;4917885;29;20056;-67
2021/06/04 12:16:36;;;;;;;8.73;7.47;;;27.60;67.00;;;;;;4917514;29;20020;-69
2021/06/04 12:19:13;;;;;;;8.55;7.70;;;27.60;67.00;;;;;;4917747;29;20028;-66
2021/06/04 12:21:39;;;;;;;7.78;7.05;;;27.70;67.60;;;;;;4918070;29;20040;-67
2021/06/04 12:24:21;;;;;;;10.38;7.45;;;27.70;68.20;;;;;;4917153;29;20121;-67
2021/06/04 12:26:52;;;;;;;7.90;6.68;;;27.80;68.00;;;;;;4917552;29;20099;-67
2021/06/04 12:29:24;;;;;;;11.52;7.13;;;27.90;67.70;;;;;;4917146;29;20036;-68
2021/06/04 12:32:10;;;;;;;8.40;7.10;;;27.90;67.60;;;;;;4917866;29;20025;-67
2021/06/04 12:34:40;;;;;;;8.95;6.70;;;27.70;66.90;;;;;;4917914;29;20032;-67
2021/06/04 12:37:11;;;;;;;8.20;6.90;;;27.50;65.80;;;;;;4916909;29;20050;-70
2021/06/04 12:40:01;;;;;;;7.10;6.40;;;27.30;66.30;;;;;;4917910;29;20594;-68
2021/06/04 12:42:27;;;;;;;6.82;6.18;;;27.40;67.20;;;;;;4917765;29;20043;-68
2021/06/04 12:44:55;;;;;;;7.70;6.90;;;27.50;68.40;;;;;;4916778;29;20028;-67
2021/06/04 12:47:26;;;;;;;9.00;6.60;;;27.60;67.60;;;;;;4917439;29;20040;-68
2021/06/04 12:49:52;;;;;;;8.80;6.93;;;27.60;71.20;;;;;;4917218;29;20087;-67
2021/06/04 12:52:21;;;;;;;10.65;6.95;;;27.50;70.50;;;;;;4916906;29;20386;-68
2021/06/04 12:54:47;;;;;;;7.60;6.28;;;27.40;70.30;;;;;;4916900;29;20387;-68
2021/06/04 12:57:26;;;;;;;7.70;6.90;;;27.30;73.30;;;;;;4916944;29;20024;-67